createdAt,value
2022-10-19T00:01:17.256Z,11.32
2022-10-19T00:03:46.742Z,8.60
2022-10-19T00:06:19.009Z,10.65
2022-10-19T00:08:46.761Z,13.88
2022-10-19T00:11:14.577Z,11.20
2022-10-19T00:13:42.382Z,10.88
2022-10-19T00:16:15.863Z,10.02
2022-10-19T00:18:44.961Z,9.63
2022-10-19T00:21:15.581Z,13.05
2022-10-19T00:23:44.498Z,12.35
2022-10-19T00:26:13.651Z,9.98
2022-10-19T00:28:41.367Z,8.65
2022-10-19T00:31:12.629Z,10.15
2022-10-19T00:33:40.765Z,10.45
2022-10-19T00:36:16.889Z,9.95
2022-10-19T00:38:44.564Z,7.75
2022-10-19T00:41:12.328Z,8.50
2022-10-19T00:44:29.289Z,7.15
2022-10-19T00:47:04.328Z,14.93
2022-10-19T00:49:38.584Z,8.65
2022-10-19T00:52:09.922Z,8.15
2022-10-19T00:54:39.981Z,8.05
2022-10-19T00:57:08.547Z,11.93
2022-10-19T00:59:37.774Z,10.80
2022-10-19T01:02:06.912Z,10.60
2022-10-19T01:04:38.290Z,11.95
2022-10-19T01:07:07.277Z,10.30
2022-10-19T01:09:35.484Z,8.93
2022-10-19T01:12:21.653Z,13.75
2022-10-19T01:15:26.969Z,11.15
2022-10-19T01:18:06.097Z,14.10
2022-10-19T01:20:43.285Z,11.48
2022-10-19T01:23:51.490Z,12.52
2022-10-19T01:26:34.225Z,16.00
2022-10-19T01:29:01.802Z,18.55
2022-10-19T01:32:11.108Z,13.55
2022-10-19T01:35:04.163Z,14.05
2022-10-19T01:37:42.076Z,19.98
2022-10-19T01:40:25.506Z,17.90
2022-10-19T01:43:03.890Z,14.82
2022-10-19T01:45:51.083Z,16.02
2022-10-19T01:48:26.365Z,12.37
2022-10-19T01:51:07.688Z,20.20
2022-10-19T01:53:42.128Z,15.05
2022-10-19T01:56:10.682Z,18.35
2022-10-19T01:58:42.179Z,21.92
2022-10-19T02:01:12.272Z,22.52
2022-10-19T02:03:41.419Z,19.95
2022-10-19T02:06:12.632Z,11.20
2022-10-19T02:08:46.063Z,12.70
2022-10-19T02:11:13.874Z,31.55
2022-10-19T02:13:43.772Z,36.92
2022-10-19T02:16:17.513Z,27.80
2022-10-19T02:18:52.144Z,10.05
2022-10-19T02:21:20.536Z,26.80
2022-10-19T02:23:49.419Z,18.58
2022-10-19T02:26:20.054Z,17.92
2022-10-19T02:28:48.876Z,20.42
2022-10-19T02:31:16.717Z,10.02
2022-10-19T02:33:44.571Z,18.37
2022-10-19T02:36:12.316Z,39.22
2022-10-19T02:38:41.639Z,29.77
2022-10-19T02:41:15.130Z,29.37
2022-10-19T02:43:46.451Z,19.17
2022-10-19T02:46:30.068Z,11.43
2022-10-19T02:48:59.126Z,12.52
2022-10-19T02:51:32.923Z,14.20
2022-10-19T02:54:04.144Z,18.23
2022-10-19T02:56:33.354Z,20.33
2022-10-19T02:59:00.987Z,12.63
2022-10-19T03:01:28.677Z,19.92
2022-10-19T03:03:56.308Z,15.02
2022-10-19T03:06:23.927Z,13.52
2022-10-19T03:08:52.009Z,24.70
2022-10-19T03:11:19.615Z,38.30
2022-10-19T03:16:19.949Z,18.27
2022-10-19T03:18:49.693Z,31.58
2022-10-19T03:21:18.354Z,31.62
2022-10-19T03:23:45.999Z,39.80
2022-10-19T03:26:17.213Z,35.88
2022-10-19T03:28:44.833Z,28.35
2022-10-19T03:31:12.850Z,19.42
2022-10-19T03:33:40.474Z,46.90
2022-10-19T03:36:31.897Z,31.37
2022-10-19T03:39:02.330Z,48.63
2022-10-19T03:41:33.751Z,48.33
2022-10-19T03:44:01.688Z,41.78
2022-10-19T03:46:29.678Z,40.15
2022-10-19T03:48:57.581Z,29.08
2022-10-19T03:51:27.985Z,23.50
2022-10-19T03:53:57.543Z,22.62
2022-10-19T03:56:27.374Z,25.67
2022-10-19T03:58:56.939Z,24.23
2022-10-19T04:01:34.190Z,23.90
2022-10-19T04:04:05.568Z,29.90
2022-10-19T04:06:35.805Z,24.25
2022-10-19T04:09:04.618Z,22.75
2022-10-19T04:11:33.630Z,23.52
2022-10-19T04:14:02.189Z,22.30
2022-10-19T04:16:31.212Z,34.53
2022-10-19T04:18:59.323Z,18.65
2022-10-19T04:21:28.685Z,17.12
2022-10-19T04:24:01.297Z,15.38
2022-10-19T04:26:29.241Z,13.77
2022-10-19T04:29:00.108Z,13.30
2022-10-19T04:31:29.512Z,12.05
2022-10-19T04:33:57.771Z,12.88
2022-10-19T04:36:25.689Z,11.15
2022-10-19T04:38:53.625Z,13.02
2022-10-19T04:41:22.708Z,13.10
2022-10-19T04:43:55.547Z,14.07
2022-10-19T04:46:23.321Z,21.50
2022-10-19T04:48:51.326Z,18.23
2022-10-19T04:51:19.352Z,27.05
2022-10-19T04:53:47.278Z,7.75
2022-10-19T04:56:23.293Z,7.30
2022-10-19T04:58:50.963Z,9.73
2022-10-19T05:01:23.083Z,14.80
2022-10-19T05:06:28.293Z,8.18
2022-10-19T05:08:56.381Z,7.90
2022-10-19T05:11:24.372Z,7.55
2022-10-19T05:13:52.701Z,8.25
2022-10-19T05:16:22.820Z,8.68
2022-10-19T05:18:52.107Z,13.50
2022-10-19T05:21:22.008Z,14.00
2022-10-19T05:23:53.352Z,11.43
2022-10-19T05:26:23.367Z,19.52
2022-10-19T07:18:41.240Z,8.80
2022-10-19T07:21:14.210Z,8.90
2022-10-19T07:23:43.377Z,9.00
2022-10-19T07:26:29.231Z,7.95
2022-10-19T07:28:58.473Z,8.45
2022-10-19T07:31:27.445Z,8.05
2022-10-19T07:34:03.602Z,7.85
2022-10-19T07:36:34.250Z,7.03
2022-10-19T07:39:03.243Z,10.35
2022-10-19T07:41:30.841Z,8.75
2022-10-19T07:43:59.166Z,7.30
2022-10-19T07:46:30.198Z,7.97
2022-10-19T07:48:57.923Z,7.85
2022-10-19T07:51:25.713Z,8.98
2022-10-19T07:53:54.080Z,7.78
2022-10-19T07:56:24.956Z,9.00
2022-10-19T07:58:54.896Z,8.60
2022-10-19T08:01:25.145Z,9.18
2022-10-19T08:06:41.860Z,9.25
2022-10-19T08:09:11.494Z,8.13
2022-10-19T08:11:43.331Z,9.73
2022-10-19T08:14:11.054Z,7.75
2022-10-19T08:16:41.587Z,8.85
2022-10-19T08:19:11.792Z,8.63
2022-10-19T08:21:41.411Z,10.15
2022-10-19T08:24:09.962Z,8.45
2022-10-19T08:26:39.392Z,9.05
2022-10-19T08:29:13.710Z,9.18
2022-10-19T08:31:42.848Z,8.52
2022-10-19T08:34:11.053Z,9.13
2022-10-19T08:36:38.766Z,9.32
2022-10-19T08:39:08.981Z,11.57
2022-10-19T08:41:43.185Z,8.73
2022-10-19T08:44:24.503Z,10.20
2022-10-19T08:46:54.896Z,12.55
2022-10-19T08:49:26.601Z,8.52
2022-10-19T08:52:04.002Z,11.38
2022-10-19T08:54:53.128Z,9.02
2022-10-19T08:57:45.392Z,9.80
2022-10-19T09:00:19.249Z,8.50
2022-10-19T09:02:55.699Z,9.23
2022-10-19T09:05:47.707Z,8.48
2022-10-19T09:08:17.847Z,7.70
2022-10-19T09:10:48.783Z,8.50
2022-10-19T09:14:04.337Z,12.30
2022-10-19T09:16:32.812Z,9.23
2022-10-19T09:19:00.546Z,8.10
2022-10-19T09:21:46.330Z,10.43
2022-10-19T09:24:47.453Z,8.13
2022-10-19T09:27:23.423Z,8.65
2022-10-19T09:29:59.935Z,8.43
2022-10-19T09:32:38.954Z,9.73
2022-10-19T09:35:18.562Z,8.90
2022-10-19T09:37:49.688Z,8.15
2022-10-19T09:40:23.891Z,8.02
2022-10-19T09:43:14.602Z,11.70
2022-10-19T09:45:47.286Z,9.18
2022-10-19T09:48:45.937Z,7.80
2022-10-19T09:51:15.972Z,7.87
2022-10-19T09:53:54.234Z,8.15
2022-10-19T09:56:24.797Z,8.70
2022-10-19T09:59:00.528Z,10.55
2022-10-19T10:01:41.715Z,7.40
2022-10-19T10:04:15.719Z,8.15
2022-10-19T10:06:45.554Z,7.87
2022-10-19T10:09:41.404Z,8.80
2022-10-19T10:12:10.106Z,7.07
2022-10-19T10:14:40.770Z,8.93
2022-10-19T10:17:19.308Z,8.02
2022-10-19T10:19:59.159Z,9.50
2022-10-19T10:22:36.695Z,10.70
2022-10-19T10:25:17.492Z,8.77
2022-10-19T10:27:57.040Z,8.48
2022-10-19T10:30:24.885Z,8.30
2022-10-19T10:32:55.095Z,8.13
2022-10-19T10:35:36.109Z,6.37
2022-10-19T10:38:17.751Z,6.18
2022-10-19T10:40:54.873Z,6.75
2022-10-19T10:43:30.604Z,7.45
2022-10-19T10:46:04.662Z,8.73
2022-10-19T10:48:44.859Z,7.55
2022-10-19T10:51:38.745Z,6.45
2022-10-19T10:54:21.639Z,7.93
2022-10-19T10:57:07.301Z,6.90
2022-10-19T10:59:45.506Z,8.38
2022-10-19T11:02:36.680Z,7.28
2022-10-19T11:05:32.422Z,7.93
2022-10-19T11:08:08.299Z,7.32
2022-10-19T11:10:40.697Z,6.97
2022-10-19T11:13:19.552Z,5.80
2022-10-19T11:15:53.290Z,6.10
2022-10-19T11:18:33.370Z,6.15
2022-10-19T11:21:19.617Z,8.80
2022-10-19T11:23:54.747Z,7.45
2022-10-19T11:26:40.260Z,7.85
2022-10-19T11:29:29.825Z,8.10
2022-10-19T11:31:58.580Z,7.12
2022-10-19T11:34:52.833Z,9.02
2022-10-19T11:37:49.379Z,6.82
2022-10-19T11:44:05.249Z,5.40
2022-10-19T11:46:41.805Z,6.10
2022-10-19T11:49:30.566Z,7.15
2022-10-19T11:52:08.570Z,7.55
2022-10-19T11:54:48.407Z,5.30
2022-10-19T11:57:29.201Z,6.82
2022-10-19T12:00:14.362Z,7.12
2022-10-19T12:03:21.419Z,7.35
2022-10-19T12:06:26.829Z,5.82
2022-10-19T12:09:12.552Z,7.97
2022-10-19T12:11:58.917Z,6.75
2022-10-19T12:14:35.316Z,7.05
2022-10-19T12:17:11.143Z,7.40
2022-10-19T12:19:46.227Z,6.60
2022-10-19T12:22:18.675Z,6.45
2022-10-19T12:24:46.358Z,4.80
2022-10-19T12:27:16.711Z,6.53
2022-10-19T12:29:48.950Z,5.82
2022-10-19T12:32:20.767Z,6.60
2022-10-19T12:38:02.785Z,10.65
2022-10-19T12:40:51.146Z,7.30
2022-10-19T12:43:29.573Z,5.55
2022-10-19T12:46:15.324Z,6.35
2022-10-19T12:48:43.046Z,6.57
2022-10-19T12:51:14.049Z,6.87
2022-10-19T12:53:49.956Z,6.10
2022-10-19T12:56:22.349Z,7.20
2022-10-19T12:58:52.219Z,6.75
2022-10-19T13:01:24.351Z,5.55
2022-10-19T13:04:08.445Z,6.72
2022-10-19T13:06:44.624Z,5.18
2022-10-19T13:09:29.215Z,5.57
2022-10-19T13:12:22.220Z,6.72
2022-10-19T13:15:00.526Z,4.43
2022-10-19T13:17:51.686Z,6.00
2022-10-19T13:20:19.362Z,5.70
2022-10-19T13:22:52.056Z,5.60
2022-10-19T13:25:38.535Z,5.18
2022-10-19T13:28:09.014Z,4.47
2022-10-19T13:30:36.717Z,7.20
2022-10-19T13:33:29.111Z,4.57
2022-10-19T13:35:59.830Z,5.80
2022-10-19T13:38:46.132Z,4.87
2022-10-19T13:41:19.209Z,5.78
2022-10-19T13:44:14.895Z,9.25
2022-10-19T13:46:42.387Z,5.53
2022-10-19T13:49:27.828Z,5.07
2022-10-19T13:52:22.742Z,4.93
2022-10-19T13:55:15.187Z,6.43
2022-10-19T13:58:04.581Z,5.35
2022-10-19T14:00:56.260Z,6.03
2022-10-19T14:03:44.815Z,5.87
2022-10-19T14:06:15.515Z,6.87
2022-10-19T14:08:52.346Z,6.15
2022-10-19T14:11:25.700Z,6.75
2022-10-19T14:14:11.730Z,7.95
2022-10-19T14:16:57.089Z,5.65
2022-10-19T14:19:30.547Z,4.82
2022-10-19T14:22:01.420Z,7.65
2022-10-19T14:24:36.062Z,4.85
2022-10-19T14:27:06.877Z,4.53
2022-10-19T14:29:48.290Z,9.85
2022-10-19T14:32:26.346Z,4.62
2022-10-19T14:34:55.880Z,6.22
2022-10-19T14:37:28.008Z,4.47
2022-10-19T14:40:27.960Z,4.50
2022-10-19T14:42:58.183Z,4.87
2022-10-19T14:45:32.325Z,4.43
2022-10-19T14:48:08.439Z,7.25
2022-10-19T14:50:49.852Z,5.53
2022-10-19T14:53:17.395Z,3.97
2022-10-19T14:55:45.266Z,5.80
2022-10-19T14:58:18.942Z,4.93
2022-10-19T15:00:49.930Z,4.72
2022-10-19T15:03:31.464Z,6.45
2022-10-19T15:06:05.218Z,5.70
2022-10-19T15:08:44.799Z,5.25
2022-10-19T15:11:42.464Z,6.75
2022-10-19T15:14:17.653Z,5.53
2022-10-19T15:16:55.517Z,5.28
2022-10-19T15:19:31.813Z,6.87
2022-10-19T15:22:33.076Z,4.90
2022-10-19T15:25:06.950Z,5.95
2022-10-19T15:27:40.160Z,6.40
2022-10-19T15:30:32.488Z,4.70
2022-10-19T15:33:02.784Z,4.47
2022-10-19T15:35:39.683Z,5.35
2022-10-19T15:38:27.933Z,6.60
2022-10-19T15:41:01.336Z,3.97
2022-10-19T15:43:32.034Z,4.87
2022-10-19T15:46:02.407Z,5.18
2022-10-19T15:48:51.221Z,5.53
2022-10-19T15:51:24.183Z,5.80
2022-10-19T15:53:59.609Z,5.75
2022-10-19T15:56:30.962Z,6.43
2022-10-19T15:59:00.670Z,4.87
2022-10-19T16:01:31.329Z,4.07
2022-10-19T16:03:59.570Z,4.70
2022-10-19T16:06:30.113Z,6.97
2022-10-19T16:08:59.653Z,4.12
2022-10-19T16:11:28.418Z,3.95
2022-10-19T16:13:56.270Z,5.95
2022-10-19T16:16:29.692Z,5.60
2022-10-19T16:18:57.913Z,5.57
2022-10-19T16:21:29.598Z,5.10
2022-10-19T16:23:57.304Z,8.65
2022-10-19T16:26:27.087Z,5.47
2022-10-19T16:28:56.369Z,5.25
2022-10-19T16:31:25.192Z,7.18
2022-10-19T16:33:52.893Z,6.15
2022-10-19T16:36:21.441Z,5.57
2022-10-19T16:38:49.299Z,8.88
2022-10-19T16:41:17.414Z,6.28
2022-10-19T16:43:45.141Z,4.80
2022-10-19T16:46:12.994Z,5.57
2022-10-19T16:48:40.662Z,5.78
2022-10-19T16:51:08.285Z,6.65
2022-10-19T16:53:37.283Z,5.97
2022-10-19T16:56:07.436Z,7.25
2022-10-19T16:58:35.691Z,7.37
2022-10-19T17:01:12.157Z,9.15
2022-10-19T17:03:39.918Z,9.32
2022-10-19T17:06:08.892Z,6.00
2022-10-19T17:09:14.399Z,5.55
2022-10-19T17:11:29.912Z,5.95
2022-10-19T17:14:00.518Z,5.35
2022-10-19T17:16:30.061Z,5.60
2022-10-19T17:18:59.779Z,5.53
2022-10-19T17:21:30.497Z,5.70
2022-10-19T17:24:03.141Z,5.35
2022-10-19T17:26:33.836Z,5.62
2022-10-19T17:29:02.313Z,6.87
2022-10-19T17:31:31.050Z,6.05
2022-10-19T17:33:59.574Z,5.22
2022-10-19T17:36:32.719Z,8.25
2022-10-19T17:39:02.610Z,5.85
2022-10-19T17:41:30.747Z,7.05
2022-10-19T17:43:58.550Z,6.95
2022-10-19T17:46:31.907Z,7.82
2022-10-19T17:48:59.989Z,6.35
2022-10-19T17:51:30.539Z,5.62
2022-10-19T17:54:00.958Z,8.48
2022-10-19T17:56:29.646Z,5.60
2022-10-19T17:58:58.132Z,6.45
2022-10-19T18:01:26.866Z,8.88
2022-10-19T18:03:55.029Z,6.35
2022-10-19T18:06:25.776Z,6.43
2022-10-19T18:08:56.536Z,7.82
2022-10-19T18:11:26.859Z,8.48
2022-10-19T18:13:57.760Z,7.60
2022-10-19T18:16:31.209Z,6.97
2022-10-19T18:19:00.470Z,6.10
2022-10-19T18:21:31.616Z,5.12
2022-10-19T18:24:01.619Z,7.30
2022-10-19T18:26:32.964Z,5.50
2022-10-19T18:29:03.471Z,6.53
2022-10-19T18:31:31.870Z,5.37
2022-10-19T18:34:02.329Z,8.30
2022-10-19T18:36:30.947Z,7.72
2022-10-19T18:39:00.955Z,9.18
2022-10-19T18:41:29.459Z,6.93
2022-10-19T18:44:00.007Z,7.85
2022-10-19T18:46:27.718Z,10.23
2022-10-19T18:48:55.465Z,8.52
2022-10-19T18:51:24.717Z,9.15
2022-10-19T18:53:52.613Z,9.32
2022-10-19T18:56:22.287Z,7.62
2022-10-19T18:58:50.238Z,10.88
2022-10-19T19:01:20.415Z,8.20
2022-10-19T19:03:50.862Z,10.40
2022-10-19T19:06:37.209Z,12.13
2022-10-19T19:09:08.507Z,8.60
2022-10-19T19:11:39.231Z,10.55
2022-10-19T19:14:14.465Z,11.88
2022-10-19T19:16:43.633Z,12.65
2022-10-19T19:19:13.188Z,8.20
2022-10-19T19:21:45.014Z,10.48
2022-10-19T19:24:18.079Z,10.50
2022-10-19T19:26:54.803Z,8.02
2022-10-19T19:29:23.682Z,8.77
2022-10-19T19:31:53.052Z,8.82
2022-10-19T19:34:21.258Z,8.98
2022-10-19T19:36:49.311Z,9.00
2022-10-19T19:39:20.467Z,7.87
2022-10-19T19:41:49.385Z,10.85
2022-10-19T19:44:17.806Z,7.25
2022-10-19T19:46:45.683Z,8.02
2022-10-19T19:49:13.828Z,8.55
2022-10-19T19:51:41.683Z,9.50
2022-10-19T19:54:09.513Z,7.93
2022-10-19T19:56:38.455Z,11.65
2022-10-19T19:59:06.264Z,9.82
2022-10-19T20:01:34.038Z,8.05
2022-10-19T20:06:38.222Z,11.23
2022-10-19T20:09:07.652Z,8.10
2022-10-19T20:11:38.424Z,10.68
2022-10-19T20:14:08.971Z,9.60
2022-10-19T20:16:37.729Z,9.38
2022-10-19T20:19:09.230Z,9.38
2022-10-19T20:21:37.077Z,10.15
2022-10-19T20:24:05.056Z,12.30
2022-10-19T20:26:32.775Z,9.73
2022-10-19T20:29:05.481Z,15.95
2022-10-19T20:31:40.148Z,10.25
2022-10-19T20:34:13.287Z,8.93
2022-10-19T20:36:41.307Z,9.15
2022-10-19T20:39:08.990Z,11.52
2022-10-19T20:41:37.054Z,12.37
2022-10-19T20:44:04.709Z,13.62
2022-10-19T20:46:32.995Z,11.12
2022-10-19T20:49:02.276Z,10.60
2022-10-19T20:51:32.849Z,10.48
2022-10-19T20:54:03.371Z,12.18
2022-10-19T20:56:34.010Z,11.00
2022-10-19T20:59:08.093Z,10.00
2022-10-19T21:01:38.215Z,11.63
2022-10-19T21:04:07.942Z,16.55
2022-10-19T21:06:39.538Z,11.52
2022-10-19T21:09:07.727Z,14.73
2022-10-19T21:11:38.638Z,10.68
2022-10-19T21:14:09.194Z,11.88
2022-10-19T21:16:38.743Z,11.02
2022-10-19T21:19:11.678Z,11.88
2022-10-19T21:21:45.467Z,8.88
2022-10-19T21:24:25.598Z,13.18
2022-10-19T21:26:53.465Z,7.75
2022-10-19T21:29:21.784Z,8.48
2022-10-19T21:31:52.920Z,10.05
2022-10-19T21:34:25.247Z,8.40
2022-10-19T21:36:53.843Z,11.43
2022-10-19T21:39:21.887Z,7.12
2022-10-19T21:41:50.326Z,9.60
2022-10-19T21:44:19.233Z,7.22
2022-10-19T21:46:48.835Z,9.57
2022-10-19T21:49:17.162Z,8.88
2022-10-19T21:51:49.651Z,7.87
2022-10-19T21:54:22.461Z,11.07
2022-10-19T21:56:50.331Z,9.85
2022-10-19T21:59:19.139Z,8.35
2022-10-19T22:01:46.857Z,9.68
2022-10-19T22:04:16.819Z,9.02
2022-10-19T22:06:44.667Z,9.93
2022-10-19T22:09:15.977Z,10.63
2022-10-19T22:11:44.154Z,10.93
2022-10-19T22:14:13.649Z,10.45
2022-10-19T22:16:42.251Z,13.40
2022-10-19T22:19:11.115Z,11.55
2022-10-19T22:24:15.287Z,9.05
2022-10-19T22:26:46.220Z,10.98
2022-10-19T22:29:14.131Z,12.18
2022-10-19T22:31:41.808Z,9.70
2022-10-19T22:34:12.695Z,14.27
2022-10-19T22:36:40.404Z,11.00
2022-10-19T22:39:08.461Z,9.95
2022-10-19T22:41:36.033Z,10.95
2022-10-19T22:44:03.916Z,10.80
2022-10-19T22:46:31.562Z,11.70
2022-10-19T22:48:59.433Z,9.85
2022-10-19T22:51:27.192Z,10.93
2022-10-19T22:53:54.793Z,9.55
2022-10-19T22:56:22.418Z,9.07
2022-10-19T22:58:50.159Z,9.05
2022-10-19T23:01:18.510Z,12.57
2022-10-19T23:03:46.392Z,12.43
2022-10-19T23:06:16.427Z,11.57
2022-10-19T23:08:45.454Z,9.13
2022-10-19T23:11:14.170Z,9.43
2022-10-19T23:13:42.456Z,12.77
2022-10-19T23:16:11.009Z,13.10
2022-10-19T23:18:41.267Z,11.43
2022-10-19T23:21:12.846Z,13.55
2022-10-19T23:23:41.828Z,10.30
2022-10-19T23:26:13.603Z,9.43
2022-10-19T23:28:43.970Z,13.93
2022-10-19T23:31:15.031Z,10.93
2022-10-19T23:33:43.925Z,11.95
2022-10-19T23:36:15.885Z,11.82
2022-10-19T23:38:45.301Z,11.25
2022-10-19T23:41:13.928Z,11.48
2022-10-19T23:43:41.813Z,11.18
2022-10-19T23:46:09.441Z,11.90
2022-10-19T23:48:37.568Z,10.52
2022-10-19T23:51:13.376Z,11.00
2022-10-19T23:53:43.179Z,11.23
2022-10-19T23:56:30.322Z,12.25
2022-10-19T23:58:58.114Z,10.60
